sensor_id;sensor_type;location;lat;lon;timestamp;pressure;altitude;pressure_sealevel;temperature;humidity
7441;BME280;29616;51.950;8.572;2023-03-23T00:01:07;98912.34;;;13.00;100.00
7441;BME280;29616;51.950;8.572;2023-03-23T00:03:37;98920.81;;;13.05;100.00
7441;BME280;29616;51.950;8.572;2023-03-23T00:06:06;98914.69;;;13.03;100.00
7441;BME280;29616;51.950;8.572;2023-03-23T00:08:35;98923.94;;;13.17;100.00
7441;BME280;29616;51.950;8.572;2023-03-23T00:11:05;98924.25;;;13.07;100.00
7441;BME280;29616;51.950;8.572;2023-03-23T00:13:34;98920.47;;;13.08;100.00
7441;BME280;29616;51.950;8.572;2023-03-23T00:16:05;98933.50;;;13.06;100.00
7441;BME280;29616;51.950;8.572;2023-03-23T00:18:44;98925.16;;;12.93;100.00
7441;BME280;29616;51.950;8.572;2023-03-23T00:21:13;98929.81;;;12.78;100.00
7441;BME280;29616;51.950;8.572;2023-03-23T00:23:42;98921.16;;;12.74;100.00
7441;BME280;29616;51.950;8.572;2023-03-23T00:26:13;98912.72;;;12.76;100.00
7441;BME280;29616;51.950;8.572;2023-03-23T00:28:39;98913.84;;;12.82;100.00
7441;BME280;29616;51.950;8.572;2023-03-23T00:31:09;98906.13;;;12.70;100.00
7441;BME280;29616;51.950;8.572;2023-03-23T00:33:37;98898.88;;;12.63;100.00
7441;BME280;29616;51.950;8.572;2023-03-23T00:36:10;98900.38;;;12.65;100.00
7441;BME280;29616;51.950;8.572;2023-03-23T00:38:38;98882.69;;;12.47;100.00
7441;BME280;29616;51.950;8.572;2023-03-23T00:41:08;98899.00;;;12.55;100.00
7441;BME280;29616;51.950;8.572;2023-03-23T00:43:38;98900.84;;;12.48;100.00
7441;BME280;29616;51.950;8.572;2023-03-23T00:46:05;98902.00;;;12.60;100.00
7441;BME280;29616;51.950;8.572;2023-03-23T00:48:35;98891.41;;;12.36;100.00
7441;BME280;29616;51.950;8.572;2023-03-23T00:51:07;98894.94;;;12.51;100.00
7441;BME280;29616;51.950;8.572;2023-03-23T00:53:36;98890.41;;;12.58;100.00
7441;BME280;29616;51.950;8.572;2023-03-23T00:56:05;98866.75;;;12.36;100.00
7441;BME280;29616;51.950;8.572;2023-03-23T00:58:32;98875.44;;;12.39;100.00
7441;BME280;29616;51.950;8.572;2023-03-23T01:01:03;98883.59;;;12.54;100.00
7441;BME280;29616;51.950;8.572;2023-03-23T01:03:31;98850.44;;;12.28;100.00
7441;BME280;29616;51.950;8.572;2023-03-23T01:06:04;98868.72;;;12.42;100.00
7441;BME280;29616;51.950;8.572;2023-03-23T01:08:34;98870.22;;;12.44;100.00
7441;BME280;29616;51.950;8.572;2023-03-23T01:11:07;98870.50;;;12.49;100.00
7441;BME280;29616;51.950;8.572;2023-03-23T01:13:34;98874.25;;;12.48;100.00
7441;BME280;29616;51.950;8.572;2023-03-23T01:16:06;98864.03;;;12.57;100.00
7441;BME280;29616;51.950;8.572;2023-03-23T01:18:34;98863.19;;;12.56;100.00
7441;BME280;29616;51.950;8.572;2023-03-23T01:21:04;98854.53;;;12.53;100.00
7441;BME280;29616;51.950;8.572;2023-03-23T01:23:33;98855.69;;;12.65;100.00
7441;BME280;29616;51.950;8.572;2023-03-23T01:26:04;98839.44;;;12.63;100.00
7441;BME280;29616;51.950;8.572;2023-03-23T01:28:33;98854.13;;;12.77;100.00
7441;BME280;29616;51.950;8.572;2023-03-23T01:31:02;98854.13;;;12.77;100.00
7441;BME280;29616;51.950;8.572;2023-03-23T01:33:32;98845.22;;;12.75;100.00
7441;BME280;29616;51.950;8.572;2023-03-23T01:36:03;98841.25;;;12.77;100.00
7441;BME280;29616;51.950;8.572;2023-03-23T01:38:31;98856.44;;;12.80;100.00
7441;BME280;29616;51.950;8.572;2023-03-23T01:40:59;98845.47;;;12.80;100.00
7441;BME280;29616;51.950;8.572;2023-03-23T01:43:28;98830.63;;;12.68;100.00
7441;BME280;29616;51.950;8.572;2023-03-23T01:45:55;98839.97;;;12.73;100.00
7441;BME280;29616;51.950;8.572;2023-03-23T01:48:23;98855.16;;;12.76;100.00
7441;BME280;29616;51.950;8.572;2023-03-23T01:50:57;98857.06;;;12.75;100.00
7441;BME280;29616;51.950;8.572;2023-03-23T01:53:28;98839.63;;;12.62;100.00
7441;BME280;29616;51.950;8.572;2023-03-23T01:55:59;98854.69;;;12.72;100.00
7441;BME280;29616;51.950;8.572;2023-03-23T01:58:31;98846.28;;;12.74;100.00
7441;BME280;29616;51.950;8.572;2023-03-23T02:01:03;98846.88;;;12.69;100.00
7441;BME280;29616;51.950;8.572;2023-03-23T02:03:33;98853.53;;;12.82;100.00
7441;BME280;29616;51.950;8.572;2023-03-23T02:06:03;98808.97;;;12.52;100.00
7441;BME280;29616;51.950;8.572;2023-03-23T02:08:37;98826.06;;;12.54;100.00
7441;BME280;29616;51.950;8.572;2023-03-23T02:11:12;98823.38;;;12.60;100.00
7441;BME280;29616;51.950;8.572;2023-03-23T02:13:41;98834.00;;;12.70;100.00
7441;BME280;29616;51.950;8.572;2023-03-23T02:16:14;98844.97;;;12.70;100.00
7441;BME280;29616;51.950;8.572;2023-03-23T02:18:50;98835.25;;;12.67;100.00
7441;BME280;29616;51.950;8.572;2023-03-23T02:21:34;98815.09;;;12.54;100.00
7441;BME280;29616;51.950;8.572;2023-03-23T02:24:28;98836.88;;;12.62;100.00
7441;BME280;29616;51.950;8.572;2023-03-23T02:27:00;98842.38;;;12.62;100.00
7441;BME280;29616;51.950;8.572;2023-03-23T02:29:50;98837.28;;;12.59;100.00
7441;BME280;29616;51.950;8.572;2023-03-23T02:32:35;98830.03;;;12.51;100.00
7441;BME280;29616;51.950;8.572;2023-03-23T02:35:10;98836.75;;;12.49;100.00
7441;BME280;29616;51.950;8.572;2023-03-23T02:37:44;98825.78;;;12.49;100.00
7441;BME280;29616;51.950;8.572;2023-03-23T02:40:15;98823.69;;;12.30;100.00
7441;BME280;29616;51.950;8.572;2023-03-23T02:42:46;98842.47;;;12.33;100.00
7441;BME280;29616;51.950;8.572;2023-03-23T02:45:17;98851.03;;;12.23;100.00
7441;BME280;29616;51.950;8.572;2023-03-23T02:47:48;98820.69;;;12.25;100.00
7441;BME280;29616;51.950;8.572;2023-03-23T02:50:17;98804.06;;;12.05;100.00
7441;BME280;29616;51.950;8.572;2023-03-23T02:52:47;98816.31;;;12.09;100.00
7441;BME280;29616;51.950;8.572;2023-03-23T02:55:16;98777.06;;;12.02;100.00
7441;BME280;29616;51.950;8.572;2023-03-23T02:57:46;98781.78;;;12.08;100.00
7441;BME280;29616;51.950;8.572;2023-03-23T03:00:16;98786.78;;;12.04;100.00
7441;BME280;29616;51.950;8.572;2023-03-23T03:02:45;98799.22;;;12.07;100.00
7441;BME280;29616;51.950;8.572;2023-03-23T03:05:17;98807.66;;;11.91;100.00
7441;BME280;29616;51.950;8.572;2023-03-23T03:07:53;98785.19;;;11.95;100.00
7441;BME280;29616;51.950;8.572;2023-03-23T03:10:29;98794.34;;;12.02;100.00
7441;BME280;29616;51.950;8.572;2023-03-23T03:13:03;98807.47;;;11.92;100.00
7441;BME280;29616;51.950;8.572;2023-03-23T03:15:34;98792.97;;;11.92;100.00
7441;BME280;29616;51.950;8.572;2023-03-23T03:18:07;98786.41;;;11.93;100.00
7441;BME280;29616;51.950;8.572;2023-03-23T03:20:40;98788.13;;;11.94;100.00
7441;BME280;29616;51.950;8.572;2023-03-23T03:23:12;98792.50;;;12.09;100.00
7441;BME280;29616;51.950;8.572;2023-03-23T03:25:43;98788.66;;;12.04;100.00
7441;BME280;29616;51.950;8.572;2023-03-23T03:28:20;98782.72;;;12.00;100.00
7441;BME280;29616;51.950;8.572;2023-03-23T03:30:53;98781.94;;;12.06;100.00
7441;BME280;29616;51.950;8.572;2023-03-23T03:33:23;98769.31;;;12.05;100.00
7441;BME280;29616;51.950;8.572;2023-03-23T03:35:55;98761.22;;;11.97;100.00
7441;BME280;29616;51.950;8.572;2023-03-23T03:38:26;98758.75;;;12.02;100.00
7441;BME280;29616;51.950;8.572;2023-03-23T03:40:54;98769.88;;;12.01;100.00
7441;BME280;29616;51.950;8.572;2023-03-23T03:43:23;98765.03;;;12.03;100.00
7441;BME280;29616;51.950;8.572;2023-03-23T03:45:51;98760.44;;;12.03;100.00
7441;BME280;29616;51.950;8.572;2023-03-23T03:48:19;98753.72;;;12.06;100.00
7441;BME280;29616;51.950;8.572;2023-03-23T03:50:49;98752.88;;;12.05;100.00
7441;BME280;29616;51.950;8.572;2023-03-23T03:53:18;98744.84;;;12.04;100.00
7441;BME280;29616;51.950;8.572;2023-03-23T03:55:48;98718.69;;;11.80;100.00
7441;BME280;29616;51.950;8.572;2023-03-23T03:58:16;98716.31;;;11.92;100.00
7441;BME280;29616;51.950;8.572;2023-03-23T04:01:07;98746.34;;;12.06;100.00
7441;BME280;29616;51.950;8.572;2023-03-23T04:03:38;98731.38;;;12.02;100.00
7441;BME280;29616;51.950;8.572;2023-03-23T04:06:12;98737.22;;;11.99;100.00
7441;BME280;29616;51.950;8.572;2023-03-23T04:08:41;98724.41;;;12.00;100.00
7441;BME280;29616;51.950;8.572;2023-03-23T04:11:13;98741.97;;;12.12;100.00
7441;BME280;29616;51.950;8.572;2023-03-23T04:13:41;98736.72;;;12.10;100.00
7441;BME280;29616;51.950;8.572;2023-03-23T04:16:19;98731.50;;;12.15;100.00
7441;BME280;29616;51.950;8.572;2023-03-23T04:18:48;98737.50;;;12.26;100.00
7441;BME280;29616;51.950;8.572;2023-03-23T04:21:17;98754.94;;;12.25;100.00
7441;BME280;29616;51.950;8.572;2023-03-23T04:23:47;98747.66;;;12.32;100.00
7441;BME280;29616;51.950;8.572;2023-03-23T04:26:17;98720.47;;;12.09;100.00
7441;BME280;29616;51.950;8.572;2023-03-23T04:28:49;98752.09;;;12.33;100.00
7441;BME280;29616;51.950;8.572;2023-03-23T04:31:46;98750.66;;;12.37;100.00
7441;BME280;29616;51.950;8.572;2023-03-23T04:34:32;98747.84;;;12.30;100.00
7441;BME280;29616;51.950;8.572;2023-03-23T04:37:02;98741.34;;;12.31;100.00
7441;BME280;29616;51.950;8.572;2023-03-23T04:39:31;98758.81;;;12.30;100.00
7441;BME280;29616;51.950;8.572;2023-03-23T04:42:03;98754.31;;;12.23;100.00
7441;BME280;29616;51.950;8.572;2023-03-23T04:44:55;98759.00;;;12.29;100.00
7441;BME280;29616;51.950;8.572;2023-03-23T04:47:31;98741.66;;;12.22;100.00
7441;BME280;29616;51.950;8.572;2023-03-23T04:50:02;98768.47;;;12.26;100.00
7441;BME280;29616;51.950;8.572;2023-03-23T04:52:36;98755.22;;;12.30;100.00
7441;BME280;29616;51.950;8.572;2023-03-23T04:55:08;98755.22;;;12.30;100.00
7441;BME280;29616;51.950;8.572;2023-03-23T04:57:40;98772.13;;;12.33;100.00
7441;BME280;29616;51.950;8.572;2023-03-23T05:00:27;98772.19;;;12.40;100.00
7441;BME280;29616;51.950;8.572;2023-03-23T05:02:56;98767.09;;;12.37;100.00
7441;BME280;29616;51.950;8.572;2023-03-23T05:05:28;98764.88;;;12.47;100.00
7441;BME280;29616;51.950;8.572;2023-03-23T05:08:00;98772.22;;;12.46;100.00
7441;BME280;29616;51.950;8.572;2023-03-23T05:10:31;98760.88;;;12.49;100.00
7441;BME280;29616;51.950;8.572;2023-03-23T05:13:06;98767.53;;;12.40;100.00
7441;BME280;29616;51.950;8.572;2023-03-23T05:15:34;98765.97;;;12.52;100.00
7441;BME280;29616;51.950;8.572;2023-03-23T05:18:04;98772.88;;;12.48;100.00
7441;BME280;29616;51.950;8.572;2023-03-23T05:20:33;98768.97;;;12.57;100.00
7441;BME280;29616;51.950;8.572;2023-03-23T05:23:04;98765.72;;;12.47;100.00
7441;BME280;29616;51.950;8.572;2023-03-23T05:25:34;98757.94;;;12.51;100.00
7441;BME280;29616;51.950;8.572;2023-03-23T05:28:11;98764.09;;;12.53;100.00
7441;BME280;29616;51.950;8.572;2023-03-23T05:30:51;98762.97;;;12.47;100.00
7441;BME280;29616;51.950;8.572;2023-03-23T05:33:21;98745.69;;;12.47;100.00
7441;BME280;29616;51.950;8.572;2023-03-23T05:35:50;98758.88;;;12.58;100.00
7441;BME280;29616;51.950;8.572;2023-03-23T05:38:24;98751.63;;;12.50;100.00
7441;BME280;29616;51.950;8.572;2023-03-23T05:40:53;98757.53;;;12.54;100.00
7441;BME280;29616;51.950;8.572;2023-03-23T05:43:28;98741.06;;;12.47;100.00
7441;BME280;29616;51.950;8.572;2023-03-23T05:46:06;98738.13;;;12.49;100.00
7441;BME280;29616;51.950;8.572;2023-03-23T05:48:38;98739.03;;;12.56;100.00
7441;BME280;29616;51.950;8.572;2023-03-23T05:51:12;98743.69;;;12.62;100.00
7441;BME280;29616;51.950;8.572;2023-03-23T05:53:43;98748.78;;;12.65;100.00
7441;BME280;29616;51.950;8.572;2023-03-23T05:56:14;98729.50;;;12.52;100.00
7441;BME280;29616;51.950;8.572;2023-03-23T05:59:01;98755.50;;;12.62;100.00
7441;BME280;29616;51.950;8.572;2023-03-23T06:01:32;98758.81;;;12.79;100.00
7441;BME280;29616;51.950;8.572;2023-03-23T06:04:00;98743.91;;;12.60;100.00
7441;BME280;29616;51.950;8.572;2023-03-23T06:06:39;98753.88;;;12.68;100.00
7441;BME280;29616;51.950;8.572;2023-03-23T06:09:09;98763.25;;;12.80;100.00
7441;BME280;29616;51.950;8.572;2023-03-23T06:11:56;98775.44;;;12.77;100.00
7441;BME280;29616;51.950;8.572;2023-03-23T06:14:48;98780.84;;;12.92;100.00
7441;BME280;29616;51.950;8.572;2023-03-23T06:17:24;98758.38;;;12.75;100.00
7441;BME280;29616;51.950;8.572;2023-03-23T06:19:53;98792.06;;;12.97;100.00
7441;BME280;29616;51.950;8.572;2023-03-23T06:22:22;98776.94;;;13.01;100.00
7441;BME280;29616;51.950;8.572;2023-03-23T06:25:09;98783.06;;;13.03;100.00
7441;BME280;29616;51.950;8.572;2023-03-23T06:27:40;98778.22;;;13.05;100.00
7441;BME280;29616;51.950;8.572;2023-03-23T06:30:11;98792.84;;;12.91;100.00
7441;BME280;29616;51.950;8.572;2023-03-23T06:32:42;98774.34;;;12.93;100.00
7441;BME280;29616;51.950;8.572;2023-03-23T06:35:12;98779.84;;;13.00;100.00
7441;BME280;29616;51.950;8.572;2023-03-23T06:38:01;98786.53;;;13.12;100.00
7441;BME280;29616;51.950;8.572;2023-03-23T06:41:05;98793.50;;;13.14;100.00
7441;BME280;29616;51.950;8.572;2023-03-23T06:43:34;98796.97;;;13.29;100.00
7441;BME280;29616;51.950;8.572;2023-03-23T06:46:14;98799.31;;;13.32;100.00
7441;BME280;29616;51.950;8.572;2023-03-23T06:48:42;98743.56;;;12.98;100.00
7441;BME280;29616;51.950;8.572;2023-03-23T06:51:14;98791.09;;;13.32;100.00
7441;BME280;29616;51.950;8.572;2023-03-23T06:53:47;98782.22;;;13.30;100.00
7441;BME280;29616;51.950;8.572;2023-03-23T06:56:16;98801.00;;;13.33;100.00
7441;BME280;29616;51.950;8.572;2023-03-23T06:58:45;98799.34;;;13.39;100.00
7441;BME280;29616;51.950;8.572;2023-03-23T07:01:17;98804.16;;;13.30;100.00
7441;BME280;29616;51.950;8.572;2023-03-23T07:03:54;98810.06;;;13.27;100.00
7441;BME280;29616;51.950;8.572;2023-03-23T07:06:35;98816.81;;;13.31;100.00
7441;BME280;29616;51.950;8.572;2023-03-23T07:09:05;98784.75;;;13.32;100.00
7441;BME280;29616;51.950;8.572;2023-03-23T07:11:33;98816.91;;;13.45;100.00
7441;BME280;29616;51.950;8.572;2023-03-23T07:14:06;98808.16;;;13.69;100.00
7441;BME280;29616;51.950;8.572;2023-03-23T07:16:36;98813.03;;;13.73;100.00
7441;BME280;29616;51.950;8.572;2023-03-23T07:19:04;98787.84;;;13.57;100.00
7441;BME280;29616;51.950;8.572;2023-03-23T07:21:34;98797.53;;;13.53;100.00
7441;BME280;29616;51.950;8.572;2023-03-23T07:24:03;98795.34;;;13.42;100.00
7441;BME280;29616;51.950;8.572;2023-03-23T07:26:46;98775.81;;;13.23;100.00
7441;BME280;29616;51.950;8.572;2023-03-23T07:29:15;98815.03;;;13.86;100.00
7441;BME280;29616;51.950;8.572;2023-03-23T07:31:47;98818.81;;;13.85;100.00
7441;BME280;29616;51.950;8.572;2023-03-23T07:34:14;98800.56;;;13.71;100.00
7441;BME280;29616;51.950;8.572;2023-03-23T07:36:58;98818.78;;;13.78;100.00
7441;BME280;29616;51.950;8.572;2023-03-23T07:39:28;98826.41;;;13.83;100.00
7441;BME280;29616;51.950;8.572;2023-03-23T07:41:58;98836.16;;;13.92;100.00
7441;BME280;29616;51.950;8.572;2023-03-23T07:44:40;98828.03;;;13.71;100.00
7441;BME280;29616;51.950;8.572;2023-03-23T07:47:13;98820.22;;;13.68;100.00
7441;BME280;29616;51.950;8.572;2023-03-23T07:49:42;98834.34;;;13.65;100.00
7441;BME280;29616;51.950;8.572;2023-03-23T07:52:26;98824.16;;;13.59;100.00
7441;BME280;29616;51.950;8.572;2023-03-23T07:54:54;98831.38;;;13.60;100.00
7441;BME280;29616;51.950;8.572;2023-03-23T07:57:33;98836.03;;;13.66;100.00
7441;BME280;29616;51.950;8.572;2023-03-23T08:00:04;98846.06;;;13.52;100.00
7441;BME280;29616;51.950;8.572;2023-03-23T08:02:50;98833.28;;;13.66;100.00
7441;BME280;29616;51.950;8.572;2023-03-23T08:05:33;98832.69;;;13.70;100.00
7441;BME280;29616;51.950;8.572;2023-03-23T08:08:07;98826.38;;;13.76;100.00
7441;BME280;29616;51.950;8.572;2023-03-23T08:11:01;98830.25;;;13.95;100.00
7441;BME280;29616;51.950;8.572;2023-03-23T08:13:46;98831.34;;;14.01;100.00
7441;BME280;29616;51.950;8.572;2023-03-23T08:16:34;98808.72;;;13.98;100.00
7441;BME280;29616;51.950;8.572;2023-03-23T08:19:06;98844.25;;;14.13;100.00
7441;BME280;29616;51.950;8.572;2023-03-23T08:21:35;98825.69;;;14.15;100.00
7441;BME280;29616;51.950;8.572;2023-03-23T08:24:06;98836.69;;;14.15;100.00
7441;BME280;29616;51.950;8.572;2023-03-23T08:27:01;98810.94;;;14.23;100.00
7441;BME280;29616;51.950;8.572;2023-03-23T08:29:34;98836.28;;;14.25;100.00
7441;BME280;29616;51.950;8.572;2023-03-23T08:32:26;98826.09;;;14.12;100.00
7441;BME280;29616;51.950;8.572;2023-03-23T08:35:19;98841.09;;;14.10;100.00
7441;BME280;29616;51.950;8.572;2023-03-23T08:38:06;98837.59;;;14.29;100.00
7441;BME280;29616;51.950;8.572;2023-03-23T08:40:57;98800.66;;;13.90;100.00
7441;BME280;29616;51.950;8.572;2023-03-23T08:43:42;98826.97;;;14.19;100.00
7441;BME280;29616;51.950;8.572;2023-03-23T08:46:38;98841.00;;;14.37;100.00
7441;BME280;29616;51.950;8.572;2023-03-23T08:49:13;98811.84;;;14.36;100.00
7441;BME280;29616;51.950;8.572;2023-03-23T08:52:10;98840.22;;;14.56;100.00
7441;BME280;29616;51.950;8.572;2023-03-23T08:55:08;98824.75;;;14.49;100.00
7441;BME280;29616;51.950;8.572;2023-03-23T08:57:54;98842.88;;;14.30;100.00
7441;BME280;29616;51.950;8.572;2023-03-23T09:00:34;98846.72;;;14.42;100.00
7441;BME280;29616;51.950;8.572;2023-03-23T09:03:08;98848.88;;;14.53;100.00
7441;BME280;29616;51.950;8.572;2023-03-23T09:05:57;98859.34;;;14.30;100.00
7441;BME280;29616;51.950;8.572;2023-03-23T09:08:46;98862.34;;;14.35;100.00
7441;BME280;29616;51.950;8.572;2023-03-23T09:11:17;98846.50;;;14.37;100.00
7441;BME280;29616;51.950;8.572;2023-03-23T09:13:49;98863.91;;;14.57;100.00
7441;BME280;29616;51.950;8.572;2023-03-23T09:16:21;98861.97;;;14.51;100.00
7441;BME280;29616;51.950;8.572;2023-03-23T09:18:52;98869.19;;;14.52;100.00
7441;BME280;29616;51.950;8.572;2023-03-23T09:21:24;98867.72;;;14.63;100.00
7441;BME280;29616;51.950;8.572;2023-03-23T09:23:55;98840.22;;;14.70;100.00
7441;BME280;29616;51.950;8.572;2023-03-23T09:26:24;98877.72;;;14.97;100.00
7441;BME280;29616;51.950;8.572;2023-03-23T09:28:51;98855.47;;;14.72;100.00
7441;BME280;29616;51.950;8.572;2023-03-23T09:31:19;98881.50;;;14.96;100.00
7441;BME280;29616;51.950;8.572;2023-03-23T09:33:48;98872.84;;;14.79;100.00
7441;BME280;29616;51.950;8.572;2023-03-23T09:36:19;98891.91;;;15.00;100.00
7441;BME280;29616;51.950;8.572;2023-03-23T09:38:48;98881.72;;;14.88;100.00
7441;BME280;29616;51.950;8.572;2023-03-23T09:41:27;98892.69;;;14.68;100.00
7441;BME280;29616;51.950;8.572;2023-03-23T09:44:04;98890.34;;;14.65;100.00
7441;BME280;29616;51.950;8.572;2023-03-23T09:46:42;98894.16;;;14.64;100.00
7441;BME280;29616;51.950;8.572;2023-03-23T09:49:14;98905.84;;;14.99;100.00
7441;BME280;29616;51.950;8.572;2023-03-23T09:51:44;98888.72;;;15.10;100.00
7441;BME280;29616;51.950;8.572;2023-03-23T09:54:17;98893.19;;;14.98;100.00
7441;BME280;29616;51.950;8.572;2023-03-23T09:56:48;98908.41;;;15.20;100.00
7441;BME280;29616;51.950;8.572;2023-03-23T09:59:19;98896.13;;;15.23;100.00
7441;BME280;29616;51.950;8.572;2023-03-23T10:01:50;98906.13;;;15.30;100.00
7441;BME280;29616;51.950;8.572;2023-03-23T10:04:26;98895.53;;;15.27;100.00
7441;BME280;29616;51.950;8.572;2023-03-23T10:06:56;98910.97;;;15.28;100.00
7441;BME280;29616;51.950;8.572;2023-03-23T10:09:27;98910.13;;;15.21;100.00
7441;BME280;29616;51.950;8.572;2023-03-23T10:12:02;98905.44;;;15.02;100.00
7441;BME280;29616;51.950;8.572;2023-03-23T10:14:44;98896.38;;;15.41;100.00
7441;BME280;29616;51.950;8.572;2023-03-23T10:17:22;98881.56;;;15.48;100.00
7441;BME280;29616;51.950;8.572;2023-03-23T10:19:54;98898.78;;;16.14;100.00
7441;BME280;29616;51.950;8.572;2023-03-23T10:22:29;98894.84;;;16.55;100.00
7441;BME280;29616;51.950;8.572;2023-03-23T10:25:03;98887.78;;;16.65;100.00
7441;BME280;29616;51.950;8.572;2023-03-23T10:27:39;98898.69;;;17.41;100.00
7441;BME280;29616;51.950;8.572;2023-03-23T10:30:13;98893.06;;;16.67;100.00
7441;BME280;29616;51.950;8.572;2023-03-23T10:32:46;98894.81;;;16.48;100.00
7441;BME280;29616;51.950;8.572;2023-03-23T10:35:18;98898.66;;;16.54;100.00
7441;BME280;29616;51.950;8.572;2023-03-23T10:37:48;98870.31;;;15.63;100.00
7441;BME280;29616;51.950;8.572;2023-03-23T10:40:18;98893.13;;;15.90;100.00
7441;BME280;29616;51.950;8.572;2023-03-23T10:42:47;98882.97;;;15.97;100.00
7441;BME280;29616;51.950;8.572;2023-03-23T10:45:18;98892.50;;;15.88;100.00
7441;BME280;29616;51.950;8.572;2023-03-23T10:47:49;98891.41;;;16.02;100.00
7441;BME280;29616;51.950;8.572;2023-03-23T10:50:18;98892.97;;;15.65;100.00
7441;BME280;29616;51.950;8.572;2023-03-23T10:52:50;98884.69;;;15.65;100.00
7441;BME280;29616;51.950;8.572;2023-03-23T10:55:24;98898.28;;;15.66;100.00
7441;BME280;29616;51.950;8.572;2023-03-23T10:58:03;98891.47;;;15.23;100.00
7441;BME280;29616;51.950;8.572;2023-03-23T11:00:32;98914.72;;;14.88;100.00
7441;BME280;29616;51.950;8.572;2023-03-23T11:03:02;98921.19;;;14.54;100.00
7441;BME280;29616;51.950;8.572;2023-03-23T11:05:35;98908.72;;;14.51;100.00
7441;BME280;29616;51.950;8.572;2023-03-23T11:08:10;98904.56;;;13.80;100.00
7441;BME280;29616;51.950;8.572;2023-03-23T11:10:46;98934.47;;;13.69;100.00
7441;BME280;29616;51.950;8.572;2023-03-23T11:13:17;98934.72;;;13.46;100.00
7441;BME280;29616;51.950;8.572;2023-03-23T11:15:45;98955.59;;;13.19;100.00
7441;BME280;29616;51.950;8.572;2023-03-23T11:18:19;98990.97;;;11.84;100.00
7441;BME280;29616;51.950;8.572;2023-03-23T11:20:49;98991.47;;;11.50;100.00
7441;BME280;29616;51.950;8.572;2023-03-23T11:23:20;99000.69;;;11.35;100.00
7441;BME280;29616;51.950;8.572;2023-03-23T11:25:57;99014.41;;;11.27;100.00
7441;BME280;29616;51.950;8.572;2023-03-23T11:28:30;99005.56;;;11.25;100.00
7441;BME280;29616;51.950;8.572;2023-03-23T11:31:01;99003.34;;;11.43;100.00
7441;BME280;29616;51.950;8.572;2023-03-23T11:33:30;99009.53;;;11.37;100.00
7441;BME280;29616;51.950;8.572;2023-03-23T11:36:05;98982.16;;;11.22;100.00
7441;BME280;29616;51.950;8.572;2023-03-23T11:38:35;99002.28;;;11.07;100.00
7441;BME280;29616;51.950;8.572;2023-03-23T11:41:08;99014.78;;;11.46;100.00
7441;BME280;29616;51.950;8.572;2023-03-23T11:43:45;99012.19;;;11.30;100.00
7441;BME280;29616;51.950;8.572;2023-03-23T11:46:22;99007.63;;;11.23;100.00
7441;BME280;29616;51.950;8.572;2023-03-23T11:48:57;99000.03;;;11.33;100.00
7441;BME280;29616;51.950;8.572;2023-03-23T11:51:27;99016.22;;;11.34;100.00
7441;BME280;29616;51.950;8.572;2023-03-23T11:53:59;99025.00;;;11.30;100.00
7441;BME280;29616;51.950;8.572;2023-03-23T11:56:29;99013.41;;;11.28;100.00
7441;BME280;29616;51.950;8.572;2023-03-23T11:58:59;99006.06;;;11.43;100.00
7441;BME280;29616;51.950;8.572;2023-03-23T12:01:40;99008.25;;;11.47;100.00
7441;BME280;29616;51.950;8.572;2023-03-23T12:04:48;99010.06;;;11.55;100.00
7441;BME280;29616;51.950;8.572;2023-03-23T12:07:28;99023.38;;;11.58;100.00
7441;BME280;29616;51.950;8.572;2023-03-23T12:10:08;99005.28;;;11.34;100.00
7441;BME280;29616;51.950;8.572;2023-03-23T12:12:42;99002.53;;;11.20;100.00
7441;BME280;29616;51.950;8.572;2023-03-23T12:15:20;98988.16;;;11.40;100.00
7441;BME280;29616;51.950;8.572;2023-03-23T12:17:53;99004.91;;;11.60;100.00
7441;BME280;29616;51.950;8.572;2023-03-23T12:20:31;99006.53;;;11.69;100.00
7441;BME280;29616;51.950;8.572;2023-03-23T12:23:03;99010.84;;;11.64;100.00
7441;BME280;29616;51.950;8.572;2023-03-23T12:25:45;99014.69;;;11.77;100.00
7441;BME280;29616;51.950;8.572;2023-03-23T12:28:21;98987.16;;;11.56;100.00
7441;BME280;29616;51.950;8.572;2023-03-23T12:31:01;98989.59;;;11.66;100.00
7441;BME280;29616;51.950;8.572;2023-03-23T12:33:37;99003.56;;;11.79;100.00
7441;BME280;29616;51.950;8.572;2023-03-23T12:36:16;99001.28;;;12.11;100.00
7441;BME280;29616;51.950;8.572;2023-03-23T12:38:56;98999.00;;;12.00;100.00
7441;BME280;29616;51.950;8.572;2023-03-23T12:41:31;99008.84;;;11.80;100.00
7441;BME280;29616;51.950;8.572;2023-03-23T12:44:05;99014.44;;;11.87;100.00
7441;BME280;29616;51.950;8.572;2023-03-23T12:46:59;98992.00;;;11.69;100.00
7441;BME280;29616;51.950;8.572;2023-03-23T12:49:33;99005.25;;;11.80;100.00
7441;BME280;29616;51.950;8.572;2023-03-23T12:52:04;98984.78;;;12.05;100.00
7441;BME280;29616;51.950;8.572;2023-03-23T12:54:40;98990.34;;;12.26;100.00
7441;BME280;29616;51.950;8.572;2023-03-23T12:57:16;99005.47;;;12.07;100.00
7441;BME280;29616;51.950;8.572;2023-03-23T12:59:49;98992.31;;;12.18;100.00
7441;BME280;29616;51.950;8.572;2023-03-23T13:02:25;98991.00;;;12.13;100.00
7441;BME280;29616;51.950;8.572;2023-03-23T13:05:01;99022.59;;;11.72;100.00
7441;BME280;29616;51.950;8.572;2023-03-23T13:07:32;99038.91;;;11.43;100.00
7441;BME280;29616;51.950;8.572;2023-03-23T13:10:05;99017.31;;;11.48;100.00
7441;BME280;29616;51.950;8.572;2023-03-23T13:12:35;99019.88;;;11.49;100.00
7441;BME280;29616;51.950;8.572;2023-03-23T13:15:20;99019.31;;;11.54;100.00
7441;BME280;29616;51.950;8.572;2023-03-23T13:17:53;99028.72;;;11.74;100.00
7441;BME280;29616;51.950;8.572;2023-03-23T13:20:46;99024.81;;;11.91;100.00
7441;BME280;29616;51.950;8.572;2023-03-23T13:23:18;99027.13;;;11.80;100.00
7441;BME280;29616;51.950;8.572;2023-03-23T13:25:51;99013.94;;;11.83;100.00
7441;BME280;29616;51.950;8.572;2023-03-23T13:28:21;98991.31;;;11.52;100.00
7441;BME280;29616;51.950;8.572;2023-03-23T13:30:57;99009.97;;;11.86;100.00
7441;BME280;29616;51.950;8.572;2023-03-23T13:33:29;99004.66;;;11.70;100.00
7441;BME280;29616;51.950;8.572;2023-03-23T13:35:56;99007.31;;;11.55;100.00